sensor_id;sensor_type;location;lat;lon;timestamp;temperature;humidity
48686;DHT22;34485;51.536;3.816;2023-08-31T00:01:49;12.30;99.90
48686;DHT22;34485;51.536;3.816;2023-08-31T00:04:15;12.30;99.90
48686;DHT22;34485;51.536;3.816;2023-08-31T00:06:41;12.30;99.90
48686;DHT22;34485;51.536;3.816;2023-08-31T00:09:07;12.30;99.90
48686;DHT22;34485;51.536;3.816;2023-08-31T00:11:35;12.30;99.90
48686;DHT22;34485;51.536;3.816;2023-08-31T00:14:01;12.30;99.90
48686;DHT22;34485;51.536;3.816;2023-08-31T00:16:27;12.30;99.90
48686;DHT22;34485;51.536;3.816;2023-08-31T00:18:53;12.40;99.90
48686;DHT22;34485;51.536;3.816;2023-08-31T00:21:21;12.40;99.90
48686;DHT22;34485;51.536;3.816;2023-08-31T00:23:46;12.30;99.90
48686;DHT22;34485;51.536;3.816;2023-08-31T00:26:12;12.30;99.90
48686;DHT22;34485;51.536;3.816;2023-08-31T00:28:37;12.30;99.90
48686;DHT22;34485;51.536;3.816;2023-08-31T00:31:04;12.30;99.90
48686;DHT22;34485;51.536;3.816;2023-08-31T00:33:30;12.30;99.90
48686;DHT22;34485;51.536;3.816;2023-08-31T00:35:58;12.30;99.90
48686;DHT22;34485;51.536;3.816;2023-08-31T00:38:27;12.30;99.90
48686;DHT22;34485;51.536;3.816;2023-08-31T00:40:52;12.30;99.90
48686;DHT22;34485;51.536;3.816;2023-08-31T00:43:19;12.30;99.90
48686;DHT22;34485;51.536;3.816;2023-08-31T00:45:48;12.30;99.90
48686;DHT22;34485;51.536;3.816;2023-08-31T00:48:17;12.30;99.90
48686;DHT22;34485;51.536;3.816;2023-08-31T00:50:47;12.30;99.90
48686;DHT22;34485;51.536;3.816;2023-08-31T00:53:13;12.20;99.90
48686;DHT22;34485;51.536;3.816;2023-08-31T00:55:39;12.20;99.90
48686;DHT22;34485;51.536;3.816;2023-08-31T00:58:08;12.20;99.90
48686;DHT22;34485;51.536;3.816;2023-08-31T01:01:04;12.30;99.90
48686;DHT22;34485;51.536;3.816;2023-08-31T01:09:30;12.20;99.90
48686;DHT22;34485;51.536;3.816;2023-08-31T01:12:04;12.20;99.90
48686;DHT22;34485;51.536;3.816;2023-08-31T01:14:53;12.20;99.90
48686;DHT22;34485;51.536;3.816;2023-08-31T01:17:21;12.20;99.90
48686;DHT22;34485;51.536;3.816;2023-08-31T01:19:59;12.20;99.90
48686;DHT22;34485;51.536;3.816;2023-08-31T01:22:43;12.20;99.90
48686;DHT22;34485;51.536;3.816;2023-08-31T01:25:12;12.20;99.90
48686;DHT22;34485;51.536;3.816;2023-08-31T01:27:38;12.20;99.90
48686;DHT22;34485;51.536;3.816;2023-08-31T01:30:05;12.20;99.90
48686;DHT22;34485;51.536;3.816;2023-08-31T01:32:32;12.20;99.90
48686;DHT22;34485;51.536;3.816;2023-08-31T01:34:58;12.10;99.90
48686;DHT22;34485;51.536;3.816;2023-08-31T01:37:36;12.10;99.90
48686;DHT22;34485;51.536;3.816;2023-08-31T01:40:09;12.10;99.90
48686;DHT22;34485;51.536;3.816;2023-08-31T01:42:36;12.10;99.90
48686;DHT22;34485;51.536;3.816;2023-08-31T01:45:03;12.00;99.90
48686;DHT22;34485;51.536;3.816;2023-08-31T01:47:31;12.00;99.90
48686;DHT22;34485;51.536;3.816;2023-08-31T01:49:56;12.00;99.90
48686;DHT22;34485;51.536;3.816;2023-08-31T01:52:22;12.00;99.90
48686;DHT22;34485;51.536;3.816;2023-08-31T01:54:48;11.90;99.90
48686;DHT22;34485;51.536;3.816;2023-08-31T01:57:13;11.90;99.90
48686;DHT22;34485;51.536;3.816;2023-08-31T01:59:39;11.90;99.90
48686;DHT22;34485;51.536;3.816;2023-08-31T02:02:05;11.90;99.90
48686;DHT22;34485;51.536;3.816;2023-08-31T02:04:31;11.90;99.90
48686;DHT22;34485;51.536;3.816;2023-08-31T02:06:56;11.90;99.90
48686;DHT22;34485;51.536;3.816;2023-08-31T02:09:22;11.80;99.90
48686;DHT22;34485;51.536;3.816;2023-08-31T02:11:48;11.80;99.90
48686;DHT22;34485;51.536;3.816;2023-08-31T02:14:14;11.80;99.90
48686;DHT22;34485;51.536;3.816;2023-08-31T02:16:39;11.80;99.90
48686;DHT22;34485;51.536;3.816;2023-08-31T02:19:05;11.70;99.90
48686;DHT22;34485;51.536;3.816;2023-08-31T02:21:30;11.70;99.90
48686;DHT22;34485;51.536;3.816;2023-08-31T02:23:56;11.70;99.90
48686;DHT22;34485;51.536;3.816;2023-08-31T02:26:22;11.70;99.90
48686;DHT22;34485;51.536;3.816;2023-08-31T02:29:07;11.70;99.90
48686;DHT22;34485;51.536;3.816;2023-08-31T02:31:33;11.70;99.90
48686;DHT22;34485;51.536;3.816;2023-08-31T02:33:58;11.70;99.90
48686;DHT22;34485;51.536;3.816;2023-08-31T02:36:24;11.70;99.90
48686;DHT22;34485;51.536;3.816;2023-08-31T02:38:49;11.60;99.90
48686;DHT22;34485;51.536;3.816;2023-08-31T02:41:16;11.60;99.90
48686;DHT22;34485;51.536;3.816;2023-08-31T02:43:42;11.60;99.90
48686;DHT22;34485;51.536;3.816;2023-08-31T02:46:08;11.60;99.90
48686;DHT22;34485;51.536;3.816;2023-08-31T02:48:33;11.50;99.90
48686;DHT22;34485;51.536;3.816;2023-08-31T02:50:59;11.50;99.90
48686;DHT22;34485;51.536;3.816;2023-08-31T02:53:31;11.50;99.90
48686;DHT22;34485;51.536;3.816;2023-08-31T02:55:57;11.50;99.90
48686;DHT22;34485;51.536;3.816;2023-08-31T02:58:22;11.50;99.90
48686;DHT22;34485;51.536;3.816;2023-08-31T03:00:48;11.50;99.90
48686;DHT22;34485;51.536;3.816;2023-08-31T03:03:15;11.40;99.90
48686;DHT22;34485;51.536;3.816;2023-08-31T03:05:41;11.40;99.90
48686;DHT22;34485;51.536;3.816;2023-08-31T03:08:07;11.40;99.90
48686;DHT22;34485;51.536;3.816;2023-08-31T03:10:32;11.50;99.90
48686;DHT22;34485;51.536;3.816;2023-08-31T03:12:58;11.40;99.90
48686;DHT22;34485;51.536;3.816;2023-08-31T03:15:23;11.40;99.90
48686;DHT22;34485;51.536;3.816;2023-08-31T03:17:49;11.40;99.90
48686;DHT22;34485;51.536;3.816;2023-08-31T03:20:14;11.40;99.90
48686;DHT22;34485;51.536;3.816;2023-08-31T03:22:40;11.40;99.90
48686;DHT22;34485;51.536;3.816;2023-08-31T03:25:06;11.40;99.90
48686;DHT22;34485;51.536;3.816;2023-08-31T03:27:32;11.40;99.90
48686;DHT22;34485;51.536;3.816;2023-08-31T03:29:58;11.40;99.90
48686;DHT22;34485;51.536;3.816;2023-08-31T03:32:23;11.40;99.90
48686;DHT22;34485;51.536;3.816;2023-08-31T03:34:49;11.40;99.90
48686;DHT22;34485;51.536;3.816;2023-08-31T03:37:15;11.40;99.90
48686;DHT22;34485;51.536;3.816;2023-08-31T03:39:41;11.40;99.90
48686;DHT22;34485;51.536;3.816;2023-08-31T03:42:08;11.40;99.90
48686;DHT22;34485;51.536;3.816;2023-08-31T03:44:35;11.40;99.90
48686;DHT22;34485;51.536;3.816;2023-08-31T03:47:01;11.40;99.90
48686;DHT22;34485;51.536;3.816;2023-08-31T03:49:26;11.40;99.90
48686;DHT22;34485;51.536;3.816;2023-08-31T03:51:52;11.30;99.90
48686;DHT22;34485;51.536;3.816;2023-08-31T03:54:19;11.30;99.90
48686;DHT22;34485;51.536;3.816;2023-08-31T03:56:45;11.40;99.90
48686;DHT22;34485;51.536;3.816;2023-08-31T03:59:10;11.40;99.90
48686;DHT22;34485;51.536;3.816;2023-08-31T04:01:36;11.40;99.90
48686;DHT22;34485;51.536;3.816;2023-08-31T04:04:02;11.40;99.90
48686;DHT22;34485;51.536;3.816;2023-08-31T04:06:27;11.40;99.90
48686;DHT22;34485;51.536;3.816;2023-08-31T04:08:54;11.40;99.90
48686;DHT22;34485;51.536;3.816;2023-08-31T04:11:20;11.40;99.90
48686;DHT22;34485;51.536;3.816;2023-08-31T04:13:46;11.40;99.90
48686;DHT22;34485;51.536;3.816;2023-08-31T04:16:11;11.50;99.90
48686;DHT22;34485;51.536;3.816;2023-08-31T04:18:37;11.50;99.90
48686;DHT22;34485;51.536;3.816;2023-08-31T04:21:02;11.50;99.90
48686;DHT22;34485;51.536;3.816;2023-08-31T04:23:29;11.50;99.90
48686;DHT22;34485;51.536;3.816;2023-08-31T04:25:54;11.50;99.90
48686;DHT22;34485;51.536;3.816;2023-08-31T04:28:21;11.60;99.90
48686;DHT22;34485;51.536;3.816;2023-08-31T04:30:47;11.60;99.90
48686;DHT22;34485;51.536;3.816;2023-08-31T04:33:12;11.60;99.90
48686;DHT22;34485;51.536;3.816;2023-08-31T04:35:38;11.60;99.90
48686;DHT22;34485;51.536;3.816;2023-08-31T04:38:04;11.70;99.90
48686;DHT22;34485;51.536;3.816;2023-08-31T04:40:29;11.70;99.90
48686;DHT22;34485;51.536;3.816;2023-08-31T04:42:55;11.70;99.90
48686;DHT22;34485;51.536;3.816;2023-08-31T04:45:20;11.80;99.90
48686;DHT22;34485;51.536;3.816;2023-08-31T04:47:46;11.80;99.90
48686;DHT22;34485;51.536;3.816;2023-08-31T04:50:12;11.80;99.90
48686;DHT22;34485;51.536;3.816;2023-08-31T04:52:37;11.80;99.90
48686;DHT22;34485;51.536;3.816;2023-08-31T04:55:06;11.80;99.90
48686;DHT22;34485;51.536;3.816;2023-08-31T04:57:39;11.90;99.90
48686;DHT22;34485;51.536;3.816;2023-08-31T05:00:05;11.90;99.90
48686;DHT22;34485;51.536;3.816;2023-08-31T05:02:34;11.90;99.90
48686;DHT22;34485;51.536;3.816;2023-08-31T05:05:00;11.90;99.90
48686;DHT22;34485;51.536;3.816;2023-08-31T05:07:25;11.90;99.90
48686;DHT22;34485;51.536;3.816;2023-08-31T05:09:51;11.90;99.90
48686;DHT22;34485;51.536;3.816;2023-08-31T05:12:16;12.00;99.90
48686;DHT22;34485;51.536;3.816;2023-08-31T05:14:43;12.00;99.90
48686;DHT22;34485;51.536;3.816;2023-08-31T05:17:08;12.00;99.90
48686;DHT22;34485;51.536;3.816;2023-08-31T05:19:34;12.10;99.90
48686;DHT22;34485;51.536;3.816;2023-08-31T05:22:00;12.10;99.90
48686;DHT22;34485;51.536;3.816;2023-08-31T05:24:25;12.20;99.90
48686;DHT22;34485;51.536;3.816;2023-08-31T05:26:51;12.20;99.90
48686;DHT22;34485;51.536;3.816;2023-08-31T05:29:17;12.30;99.90
48686;DHT22;34485;51.536;3.816;2023-08-31T05:31:42;12.40;99.90
48686;DHT22;34485;51.536;3.816;2023-08-31T05:34:10;12.40;99.90
48686;DHT22;34485;51.536;3.816;2023-08-31T05:36:36;12.40;99.90
48686;DHT22;34485;51.536;3.816;2023-08-31T05:39:02;12.50;99.90
48686;DHT22;34485;51.536;3.816;2023-08-31T05:41:28;12.60;99.90
48686;DHT22;34485;51.536;3.816;2023-08-31T05:43:54;12.60;99.90
48686;DHT22;34485;51.536;3.816;2023-08-31T05:46:19;12.60;99.90
48686;DHT22;34485;51.536;3.816;2023-08-31T05:48:45;12.70;99.90
48686;DHT22;34485;51.536;3.816;2023-08-31T05:51:10;12.70;99.90
48686;DHT22;34485;51.536;3.816;2023-08-31T05:53:36;12.70;99.90
48686;DHT22;34485;51.536;3.816;2023-08-31T05:56:03;12.70;99.90
48686;DHT22;34485;51.536;3.816;2023-08-31T05:58:33;12.70;99.90
48686;DHT22;34485;51.536;3.816;2023-08-31T06:00:59;12.80;99.90
48686;DHT22;34485;51.536;3.816;2023-08-31T06:03:25;12.80;99.90
48686;DHT22;34485;51.536;3.816;2023-08-31T06:05:51;12.90;99.90
48686;DHT22;34485;51.536;3.816;2023-08-31T06:08:17;12.90;99.90
48686;DHT22;34485;51.536;3.816;2023-08-31T06:10:43;13.00;99.90
48686;DHT22;34485;51.536;3.816;2023-08-31T06:13:08;13.10;99.90
48686;DHT22;34485;51.536;3.816;2023-08-31T06:15:34;13.30;99.90
48686;DHT22;34485;51.536;3.816;2023-08-31T06:18:00;13.40;99.90
48686;DHT22;34485;51.536;3.816;2023-08-31T06:20:25;13.60;99.90
48686;DHT22;34485;51.536;3.816;2023-08-31T06:22:51;13.70;99.90
48686;DHT22;34485;51.536;3.816;2023-08-31T06:25:16;13.70;99.90
48686;DHT22;34485;51.536;3.816;2023-08-31T06:27:44;13.80;99.90
48686;DHT22;34485;51.536;3.816;2023-08-31T06:30:10;13.80;99.90
48686;DHT22;34485;51.536;3.816;2023-08-31T06:32:44;13.80;99.90
48686;DHT22;34485;51.536;3.816;2023-08-31T06:35:14;13.80;99.90
48686;DHT22;34485;51.536;3.816;2023-08-31T06:37:41;13.70;99.90
48686;DHT22;34485;51.536;3.816;2023-08-31T06:40:08;13.80;99.90
48686;DHT22;34485;51.536;3.816;2023-08-31T06:42:34;13.80;99.90
48686;DHT22;34485;51.536;3.816;2023-08-31T06:45:01;13.80;99.90
48686;DHT22;34485;51.536;3.816;2023-08-31T06:47:26;13.90;99.90
48686;DHT22;34485;51.536;3.816;2023-08-31T06:49:52;14.00;99.90
48686;DHT22;34485;51.536;3.816;2023-08-31T06:52:18;14.00;99.90
48686;DHT22;34485;51.536;3.816;2023-08-31T06:54:44;14.10;99.90
48686;DHT22;34485;51.536;3.816;2023-08-31T06:57:09;14.20;99.90
48686;DHT22;34485;51.536;3.816;2023-08-31T06:59:35;14.30;99.90
48686;DHT22;34485;51.536;3.816;2023-08-31T07:02:00;14.40;99.90
48686;DHT22;34485;51.536;3.816;2023-08-31T07:04:29;14.50;99.90
48686;DHT22;34485;51.536;3.816;2023-08-31T07:06:54;14.50;99.90
48686;DHT22;34485;51.536;3.816;2023-08-31T07:09:20;14.60;99.90
48686;DHT22;34485;51.536;3.816;2023-08-31T07:11:45;14.70;99.90
48686;DHT22;34485;51.536;3.816;2023-08-31T07:14:11;14.80;99.90
48686;DHT22;34485;51.536;3.816;2023-08-31T07:16:36;14.90;99.90
48686;DHT22;34485;51.536;3.816;2023-08-31T07:19:02;15.00;99.90
48686;DHT22;34485;51.536;3.816;2023-08-31T07:21:28;15.10;99.90
48686;DHT22;34485;51.536;3.816;2023-08-31T07:23:54;15.20;99.90
48686;DHT22;34485;51.536;3.816;2023-08-31T07:26:20;15.50;99.90
48686;DHT22;34485;51.536;3.816;2023-08-31T07:28:47;15.70;99.90
48686;DHT22;34485;51.536;3.816;2023-08-31T07:31:13;16.30;99.90
48686;DHT22;34485;51.536;3.816;2023-08-31T07:33:38;17.00;99.90
48686;DHT22;34485;51.536;3.816;2023-08-31T07:36:05;17.90;99.90
48686;DHT22;34485;51.536;3.816;2023-08-31T07:38:32;18.20;99.90
48686;DHT22;34485;51.536;3.816;2023-08-31T07:40:58;19.20;99.90
48686;DHT22;34485;51.536;3.816;2023-08-31T07:43:25;20.10;99.90
48686;DHT22;34485;51.536;3.816;2023-08-31T07:45:52;20.30;99.90
48686;DHT22;34485;51.536;3.816;2023-08-31T07:48:17;20.00;99.90
48686;DHT22;34485;51.536;3.816;2023-08-31T07:50:43;19.70;99.90
48686;DHT22;34485;51.536;3.816;2023-08-31T07:53:08;20.00;99.90
48686;DHT22;34485;51.536;3.816;2023-08-31T07:55:34;20.60;99.90
48686;DHT22;34485;51.536;3.816;2023-08-31T07:58:01;21.20;99.80
48686;DHT22;34485;51.536;3.816;2023-08-31T08:00:26;21.80;99.20
48686;DHT22;34485;51.536;3.816;2023-08-31T08:02:52;22.40;96.40
48686;DHT22;34485;51.536;3.816;2023-08-31T08:05:18;22.80;94.80
48686;DHT22;34485;51.536;3.816;2023-08-31T08:07:43;23.00;93.30
48686;DHT22;34485;51.536;3.816;2023-08-31T08:10:11;23.50;89.80
48686;DHT22;34485;51.536;3.816;2023-08-31T08:15:06;24.20;83.10
48686;DHT22;34485;51.536;3.816;2023-08-31T08:17:33;24.70;79.80
48686;DHT22;34485;51.536;3.816;2023-08-31T08:19:59;25.10;73.50
48686;DHT22;34485;51.536;3.816;2023-08-31T08:22:25;25.50;78.00
48686;DHT22;34485;51.536;3.816;2023-08-31T08:24:50;26.00;74.80
48686;DHT22;34485;51.536;3.816;2023-08-31T08:27:16;26.30;71.20
48686;DHT22;34485;51.536;3.816;2023-08-31T08:29:44;26.40;69.10
48686;DHT22;34485;51.536;3.816;2023-08-31T08:32:10;26.80;75.20
48686;DHT22;34485;51.536;3.816;2023-08-31T08:34:36;27.40;65.40
48686;DHT22;34485;51.536;3.816;2023-08-31T08:37:02;28.10;68.20
48686;DHT22;34485;51.536;3.816;2023-08-31T08:39:29;28.70;65.90
48686;DHT22;34485;51.536;3.816;2023-08-31T08:41:57;29.00;59.10
48686;DHT22;34485;51.536;3.816;2023-08-31T08:46:51;28.40;60.70
48686;DHT22;34485;51.536;3.816;2023-08-31T08:49:18;28.60;59.00
48686;DHT22;34485;51.536;3.816;2023-08-31T08:51:45;28.30;63.00
48686;DHT22;34485;51.536;3.816;2023-08-31T08:54:13;28.20;60.60
48686;DHT22;34485;51.536;3.816;2023-08-31T08:56:39;28.60;60.30
48686;DHT22;34485;51.536;3.816;2023-08-31T08:59:05;28.90;61.60
48686;DHT22;34485;51.536;3.816;2023-08-31T09:01:32;29.10;57.90
48686;DHT22;34485;51.536;3.816;2023-08-31T09:03:57;29.50;55.00
48686;DHT22;34485;51.536;3.816;2023-08-31T09:06:23;29.70;52.60
48686;DHT22;34485;51.536;3.816;2023-08-31T09:08:55;29.80;55.20
48686;DHT22;34485;51.536;3.816;2023-08-31T09:11:22;29.90;53.50
48686;DHT22;34485;51.536;3.816;2023-08-31T09:13:49;30.20;55.30
48686;DHT22;34485;51.536;3.816;2023-08-31T09:16:26;30.00;54.20
48686;DHT22;34485;51.536;3.816;2023-08-31T09:18:52;29.40;52.30
48686;DHT22;34485;51.536;3.816;2023-08-31T09:21:18;28.30;55.50
48686;DHT22;34485;51.536;3.816;2023-08-31T09:23:55;27.20;59.20
48686;DHT22;34485;51.536;3.816;2023-08-31T09:26:21;26.10;61.50
48686;DHT22;34485;51.536;3.816;2023-08-31T09:28:46;25.00;67.70
48686;DHT22;34485;51.536;3.816;2023-08-31T09:31:14;24.40;73.50
48686;DHT22;34485;51.536;3.816;2023-08-31T09:33:52;24.10;74.30
48686;DHT22;34485;51.536;3.816;2023-08-31T09:36:19;23.90;74.40
48686;DHT22;34485;51.536;3.816;2023-08-31T09:38:45;23.40;74.40
48686;DHT22;34485;51.536;3.816;2023-08-31T09:41:11;23.10;77.50
48686;DHT22;34485;51.536;3.816;2023-08-31T09:43:37;22.90;80.10
48686;DHT22;34485;51.536;3.816;2023-08-31T09:46:04;22.70;81.20
48686;DHT22;34485;51.536;3.816;2023-08-31T09:50:56;22.00;80.60
48686;DHT22;34485;51.536;3.816;2023-08-31T09:53:24;21.70;83.50
48686;DHT22;34485;51.536;3.816;2023-08-31T09:55:51;21.50;85.20
48686;DHT22;34485;51.536;3.816;2023-08-31T09:58:18;21.20;87.10
48686;DHT22;34485;51.536;3.816;2023-08-31T10:00:49;21.10;88.70
48686;DHT22;34485;51.536;3.816;2023-08-31T10:03:16;20.90;89.60
48686;DHT22;34485;51.536;3.816;2023-08-31T10:05:47;20.80;90.30
48686;DHT22;34485;51.536;3.816;2023-08-31T10:08:14;20.70;91.30
48686;DHT22;34485;51.536;3.816;2023-08-31T10:10:40;21.20;92.10
48686;DHT22;34485;51.536;3.816;2023-08-31T10:13:06;21.70;87.10
48686;DHT22;34485;51.536;3.816;2023-08-31T10:15:33;21.80;86.30
48686;DHT22;34485;51.536;3.816;2023-08-31T10:18:00;21.80;86.60
48686;DHT22;34485;51.536;3.816;2023-08-31T10:20:26;21.70;85.70
48686;DHT22;34485;51.536;3.816;2023-08-31T10:22:54;21.70;85.70
48686;DHT22;34485;51.536;3.816;2023-08-31T10:25:23;21.60;84.60
48686;DHT22;34485;51.536;3.816;2023-08-31T10:27:49;21.40;84.00
48686;DHT22;34485;51.536;3.816;2023-08-31T10:30:25;21.60;85.00
48686;DHT22;34485;51.536;3.816;2023-08-31T10:38:24;22.60;77.40
48686;DHT22;34485;51.536;3.816;2023-08-31T10:41:16;23.20;78.40
48686;DHT22;34485;51.536;3.816;2023-08-31T10:43:50;23.40;79.10
48686;DHT22;34485;51.536;3.816;2023-08-31T10:48:58;23.70;73.30
48686;DHT22;34485;51.536;3.816;2023-08-31T10:51:30;23.30;71.80
48686;DHT22;34485;51.536;3.816;2023-08-31T10:56:53;22.10;77.60
48686;DHT22;34485;51.536;3.816;2023-08-31T10:59:22;21.80;81.70
48686;DHT22;34485;51.536;3.816;2023-08-31T11:01:58;22.00;79.20
48686;DHT22;34485;51.536;3.816;2023-08-31T11:04:29;22.30;79.90
48686;DHT22;34485;51.536;3.816;2023-08-31T11:07:30;22.80;80.70
48686;DHT22;34485;51.536;3.816;2023-08-31T11:12:44;24.70;71.90
48686;DHT22;34485;51.536;3.816;2023-08-31T11:15:15;25.30;67.30
48686;DHT22;34485;51.536;3.816;2023-08-31T11:17:42;25.70;68.50
48686;DHT22;34485;51.536;3.816;2023-08-31T11:20:09;25.70;64.00
48686;DHT22;34485;51.536;3.816;2023-08-31T11:22:39;25.50;67.70
48686;DHT22;34485;51.536;3.816;2023-08-31T11:25:06;25.30;64.90
48686;DHT22;34485;51.536;3.816;2023-08-31T11:27:32;24.90;64.20
48686;DHT22;34485;51.536;3.816;2023-08-31T11:29:57;24.90;68.70
48686;DHT22;34485;51.536;3.816;2023-08-31T11:32:23;25.30;66.80
48686;DHT22;34485;51.536;3.816;2023-08-31T11:34:50;25.90;69.70
48686;DHT22;34485;51.536;3.816;2023-08-31T11:37:15;26.50;66.80
48686;DHT22;34485;51.536;3.816;2023-08-31T11:39:51;26.80;60.80
48686;DHT22;34485;51.536;3.816;2023-08-31T11:42:19;26.80;59.00
48686;DHT22;34485;51.536;3.816;2023-08-31T11:44:50;26.50;60.80
48686;DHT22;34485;51.536;3.816;2023-08-31T11:47:16;26.40;60.60
48686;DHT22;34485;51.536;3.816;2023-08-31T11:49:43;26.30;58.70
48686;DHT22;34485;51.536;3.816;2023-08-31T11:52:13;26.00;60.70
48686;DHT22;34485;51.536;3.816;2023-08-31T11:54:39;25.90;59.70
48686;DHT22;34485;51.536;3.816;2023-08-31T11:57:11;25.80;58.80
48686;DHT22;34485;51.536;3.816;2023-08-31T11:59:39;25.50;61.30
48686;DHT22;34485;51.536;3.816;2023-08-31T12:02:08;25.50;68.00
48686;DHT22;34485;51.536;3.816;2023-08-31T12:04:44;25.30;64.10
48686;DHT22;34485;51.536;3.816;2023-08-31T12:07:10;25.40;65.60
48686;DHT22;34485;51.536;3.816;2023-08-31T12:09:36;25.40;64.90
48686;DHT22;34485;51.536;3.816;2023-08-31T12:12:02;25.60;63.10
48686;DHT22;34485;51.536;3.816;2023-08-31T12:14:30;25.70;65.00
48686;DHT22;34485;51.536;3.816;2023-08-31T12:17:05;25.70;65.70
48686;DHT22;34485;51.536;3.816;2023-08-31T12:19:31;25.40;62.50
48686;DHT22;34485;51.536;3.816;2023-08-31T12:21:57;25.00;65.00
48686;DHT22;34485;51.536;3.816;2023-08-31T12:24:23;24.50;63.90
48686;DHT22;34485;51.536;3.816;2023-08-31T12:29:16;24.00;67.10
48686;DHT22;34485;51.536;3.816;2023-08-31T12:31:42;24.20;68.20
48686;DHT22;34485;51.536;3.816;2023-08-31T12:34:09;24.40;68.90
48686;DHT22;34485;51.536;3.816;2023-08-31T12:36:35;24.60;66.40
48686;DHT22;34485;51.536;3.816;2023-08-31T12:39:09;24.60;66.80
48686;DHT22;34485;51.536;3.816;2023-08-31T12:41:39;24.50;63.50
48686;DHT22;34485;51.536;3.816;2023-08-31T12:44:08;24.50;65.80
48686;DHT22;34485;51.536;3.816;2023-08-31T12:46:34;24.30;66.50
48686;DHT22;34485;51.536;3.816;2023-08-31T12:49:00;24.00;65.60
48686;DHT22;34485;51.536;3.816;2023-08-31T12:51:28;23.90;66.70
48686;DHT22;34485;51.536;3.816;2023-08-31T12:53:53;24.00;68.40
48686;DHT22;34485;51.536;3.816;2023-08-31T12:56:19;24.10;67.20
48686;DHT22;34485;51.536;3.816;2023-08-31T12:58:49;24.30;66.80
48686;DHT22;34485;51.536;3.816;2023-08-31T13:01:15;24.40;66.30
48686;DHT22;34485;51.536;3.816;2023-08-31T13:03:40;24.40;64.50
48686;DHT22;34485;51.536;3.816;2023-08-31T13:06:06;24.30;66.30
48686;DHT22;34485;51.536;3.816;2023-08-31T13:08:31;24.40;69.10
48686;DHT22;34485;51.536;3.816;2023-08-31T13:10:57;24.40;66.70
48686;DHT22;34485;51.536;3.816;2023-08-31T13:13:23;24.50;68.80
48686;DHT22;34485;51.536;3.816;2023-08-31T13:15:49;24.40;62.30
48686;DHT22;34485;51.536;3.816;2023-08-31T13:18:14;24.50;68.00
48686;DHT22;34485;51.536;3.816;2023-08-31T13:20:40;24.60;67.90
48686;DHT22;34485;51.536;3.816;2023-08-31T13:23:07;24.60;63.10
48686;DHT22;34485;51.536;3.816;2023-08-31T13:25:32;24.60;63.80
48686;DHT22;34485;51.536;3.816;2023-08-31T13:27:58;24.60;66.20
48686;DHT22;34485;51.536;3.816;2023-08-31T13:30:24;24.60;67.40
48686;DHT22;34485;51.536;3.816;2023-08-31T13:32:50;24.50;65.30
48686;DHT22;34485;51.536;3.816;2023-08-31T13:35:16;24.30;65.40
48686;DHT22;34485;51.536;3.816;2023-08-31T13:37:42;24.10;66.40
48686;DHT22;34485;51.536;3.816;2023-08-31T13:40:08;23.90;68.10
48686;DHT22;34485;51.536;3.816;2023-08-31T13:42:35;23.60;68.80
48686;DHT22;34485;51.536;3.816;2023-08-31T13:45:05;23.40;69.00
48686;DHT22;34485;51.536;3.816;2023-08-31T13:47:31;23.30;68.10
48686;DHT22;34485;51.536;3.816;2023-08-31T13:49:56;23.10;71.40
48686;DHT22;34485;51.536;3.816;2023-08-31T13:52:22;23.00;70.70
48686;DHT22;34485;51.536;3.816;2023-08-31T13:54:48;23.10;72.10
48686;DHT22;34485;51.536;3.816;2023-08-31T13:57:14;23.10;72.20
48686;DHT22;34485;51.536;3.816;2023-08-31T13:59:43;23.20;71.30
48686;DHT22;34485;51.536;3.816;2023-08-31T14:02:09;23.30;71.20
48686;DHT22;34485;51.536;3.816;2023-08-31T14:04:34;23.30;69.30
48686;DHT22;34485;51.536;3.816;2023-08-31T14:07:00;23.10;69.60
48686;DHT22;34485;51.536;3.816;2023-08-31T14:09:27;23.00;70.80
48686;DHT22;34485;51.536;3.816;2023-08-31T14:11:52;22.90;73.10
48686;DHT22;34485;51.536;3.816;2023-08-31T14:14:19;22.80;73.30
48686;DHT22;34485;51.536;3.816;2023-08-31T14:16:47;22.80;71.20
48686;DHT22;34485;51.536;3.816;2023-08-31T14:19:12;22.70;73.40
48686;DHT22;34485;51.536;3.816;2023-08-31T14:21:38;22.60;71.70
48686;DHT22;34485;51.536;3.816;2023-08-31T14:24:04;22.50;73.10
48686;DHT22;34485;51.536;3.816;2023-08-31T14:28:55;22.30;73.70
48686;DHT22;34485;51.536;3.816;2023-08-31T14:31:21;22.30;76.20
48686;DHT22;34485;51.536;3.816;2023-08-31T14:33:47;22.30;78.00
48686;DHT22;34485;51.536;3.816;2023-08-31T14:36:15;22.30;76.60
48686;DHT22;34485;51.536;3.816;2023-08-31T14:38:41;22.10;76.10
48686;DHT22;34485;51.536;3.816;2023-08-31T14:41:07;22.10;76.50
48686;DHT22;34485;51.536;3.816;2023-08-31T14:43:33;22.00;78.70
48686;DHT22;34485;51.536;3.816;2023-08-31T14:45:59;21.80;80.10
48686;DHT22;34485;51.536;3.816;2023-08-31T14:48:27;21.60;80.10
48686;DHT22;34485;51.536;3.816;2023-08-31T14:50:53;21.50;82.00
48686;DHT22;34485;51.536;3.816;2023-08-31T14:53:18;21.30;82.50
48686;DHT22;34485;51.536;3.816;2023-08-31T14:55:50;21.40;82.40
48686;DHT22;34485;51.536;3.816;2023-08-31T14:58:16;21.70;83.80
48686;DHT22;34485;51.536;3.816;2023-08-31T15:00:42;22.00;81.60
48686;DHT22;34485;51.536;3.816;2023-08-31T15:03:07;22.00;80.40
48686;DHT22;34485;51.536;3.816;2023-08-31T15:05:34;22.00;80.80
48686;DHT22;34485;51.536;3.816;2023-08-31T15:08:01;21.90;82.00
48686;DHT22;34485;51.536;3.816;2023-08-31T15:10:29;21.80;81.00
48686;DHT22;34485;51.536;3.816;2023-08-31T15:12:54;21.70;81.90
48686;DHT22;34485;51.536;3.816;2023-08-31T15:15:27;21.60;82.90
48686;DHT22;34485;51.536;3.816;2023-08-31T15:17:53;21.40;83.90
48686;DHT22;34485;51.536;3.816;2023-08-31T15:20:18;21.40;83.60
48686;DHT22;34485;51.536;3.816;2023-08-31T15:22:44;21.40;82.50
48686;DHT22;34485;51.536;3.816;2023-08-31T15:25:10;21.50;83.10
48686;DHT22;34485;51.536;3.816;2023-08-31T15:27:35;21.40;82.70
48686;DHT22;34485;51.536;3.816;2023-08-31T15:30:02;21.30;82.90
48686;DHT22;34485;51.536;3.816;2023-08-31T15:32:29;21.20;83.20
48686;DHT22;34485;51.536;3.816;2023-08-31T15:34:54;21.20;85.20
48686;DHT22;34485;51.536;3.816;2023-08-31T15:37:20;21.10;85.40
48686;DHT22;34485;51.536;3.816;2023-08-31T15:39:46;21.00;85.90
48686;DHT22;34485;51.536;3.816;2023-08-31T15:42:11;20.90;86.60
48686;DHT22;34485;51.536;3.816;2023-08-31T15:44:40;20.70;87.30
48686;DHT22;34485;51.536;3.816;2023-08-31T15:51:58;19.30;93.10
48686;DHT22;34485;51.536;3.816;2023-08-31T15:56:50;18.50;95.70
48686;DHT22;34485;51.536;3.816;2023-08-31T15:59:15;18.30;97.50
48686;DHT22;34485;51.536;3.816;2023-08-31T16:01:41;18.10;98.00
48686;DHT22;34485;51.536;3.816;2023-08-31T16:04:09;18.00;99.70
48686;DHT22;34485;51.536;3.816;2023-08-31T16:06:34;18.00;99.90
48686;DHT22;34485;51.536;3.816;2023-08-31T16:09:03;18.00;99.90